Time;durP1;ratioP1;P1;durP2;ratioP2;P2;SDS_P1;SDS_P2;PMS_P1;PMS_P2;Temp;Humidity;BMP_temperature;BMP_pressure;BME280_temperature;BME280_humidity;BME280_pressure;Samples;Min_cycle;Max_cycle;Signal;HPM_P1;HPM_P2
2023/03/30 00:02:37;;;;;;;8.73;2.43;;;;;;;-150.27;100.00;61272.81;5233542;28;20026;-76
2023/03/30 00:05:09;;;;;;;5.60;2.60;;;;;;;-150.27;100.00;61272.81;5233980;28;20021;-76
2023/03/30 00:07:44;;;;;;;5.30;1.97;;;;;;;-150.27;100.00;61272.81;5234542;28;20025;-76
2023/03/30 00:10:18;;;;;;;5.87;2.27;;;;;;;-150.27;100.00;61272.81;5234279;28;20732;-76
2023/03/30 00:12:50;;;;;;;5.63;1.90;;;;;;;-150.27;100.00;61272.81;5234035;28;20115;-76
2023/03/30 00:15:22;;;;;;;6.70;1.90;;;;;;;-150.27;100.00;61272.81;5234164;28;20484;-76
2023/03/30 00:17:54;;;;;;;5.23;1.97;;;;;;;-150.27;100.00;61272.81;5233123;28;20034;-75
2023/03/30 00:20:26;;;;;;;5.93;2.07;;;;;;;-150.27;100.00;61272.81;5233935;28;20086;-76
2023/03/30 00:22:57;;;;;;;7.00;2.53;;;;;;;-150.27;100.00;61272.81;5233956;28;20103;-75
2023/03/30 00:25:29;;;;;;;6.83;2.60;;;;;;;-150.27;100.00;61272.81;5234152;28;20403;-76
2023/03/30 00:28:00;;;;;;;4.37;2.00;;;;;;;-150.27;100.00;61272.81;5233998;28;20030;-76
2023/03/30 00:30:31;;;;;;;7.80;2.03;;;;;;;-150.27;100.00;61272.81;5234125;28;20477;-76
2023/03/30 00:33:03;;;;;;;7.73;2.13;;;;;;;-150.27;100.00;61272.81;5232725;28;20022;-75
2023/03/30 00:35:35;;;;;;;7.07;1.80;;;;;;;-150.27;100.00;61272.81;5234233;28;20021;-76
2023/03/30 00:38:06;;;;;;;10.10;2.50;;;;;;;-150.27;100.00;61272.81;5233452;28;20029;-75
2023/03/30 00:40:37;;;;;;;7.23;1.93;;;;;;;-150.27;100.00;61272.81;5232540;28;20036;-76
2023/03/30 00:43:10;;;;;;;6.13;2.00;;;;;;;-150.27;100.00;61272.81;5217190;28;20021;-76
2023/03/30 00:45:42;;;;;;;5.00;1.87;;;;;;;-150.27;100.00;61272.81;5234436;28;20060;-77
2023/03/30 00:48:17;;;;;;;4.93;1.97;;;;;;;-150.27;100.00;61272.81;5232861;28;20053;-77
2023/03/30 00:51:01;;;;;;;4.37;2.00;;;;;;;-150.27;100.00;61272.81;5233503;28;20083;-77
2023/03/30 00:53:37;;;;;;;4.68;2.10;;;;;;;-150.27;100.00;61272.81;5234045;28;20473;-77
2023/03/30 00:56:11;;;;;;;4.47;2.23;;;;;;;-150.27;100.00;61272.81;5230543;28;20022;-77
2023/03/30 00:58:44;;;;;;;5.30;2.20;;;;;;;-150.27;100.00;61272.81;5232475;28;20174;-77
2023/03/30 01:01:24;;;;;;;6.13;2.17;;;;;;;-150.27;100.00;61272.81;5231527;28;20022;-76
2023/03/30 01:04:01;;;;;;;4.93;1.90;;;;;;;-150.27;100.00;61272.81;5233538;28;20502;-77
2023/03/30 01:06:34;;;;;;;6.70;2.07;;;;;;;-150.27;100.00;61272.81;5231456;28;20705;-76
2023/03/30 01:09:07;;;;;;;4.68;2.00;;;;;;;-150.27;100.00;61272.81;5233268;28;20052;-76
2023/03/30 01:11:39;;;;;;;6.27;1.93;;;;;;;-150.27;100.00;61272.81;5230970;28;20049;-77
2023/03/30 01:14:14;;;;;;;9.73;3.00;;;;;;;-150.27;100.00;61272.81;5231043;28;20132;-77
2023/03/30 01:17:03;;;;;;;6.33;1.93;;;;;;;-150.27;100.00;61272.81;5232364;28;20018;-76
2023/03/30 01:19:53;;;;;;;4.30;2.07;;;;;;;-150.27;100.00;61272.81;5232359;28;20021;-77
2023/03/30 01:22:49;;;;;;;9.83;2.40;;;;;;;-150.27;100.00;61272.81;5232972;28;20104;-77
2023/03/30 01:25:59;;;;;;;10.43;2.93;;;;;;;-150.27;100.00;61272.81;5233070;28;20187;-76
2023/03/30 01:29:11;;;;;;;8.60;2.10;;;;;;;-150.27;100.00;61272.81;5233095;28;20048;-76
2023/03/30 01:32:04;;;;;;;6.40;2.30;;;;;;;-150.27;100.00;61272.81;5182356;28;20489;-76
2023/03/30 01:35:16;;;;;;;6.50;2.40;;;;;;;-150.27;100.00;61272.81;5233332;28;20120;-76
2023/03/30 01:37:53;;;;;;;6.67;2.40;;;;;;;-150.27;100.00;61272.81;5169038;28;20062;-76
2023/03/30 01:40:30;;;;;;;5.60;2.07;;;;;;;-150.27;100.00;61272.81;5168260;28;20058;-76
2023/03/30 01:43:10;;;;;;;4.50;1.60;;;;;;;-150.27;100.00;61272.81;5210431;28;20034;-75
2023/03/30 01:45:46;;;;;;;6.13;2.17;;;;;;;-150.27;100.00;61272.81;5227839;28;20033;-76
2023/03/30 01:48:32;;;;;;;2.93;1.73;;;;;;;-150.27;100.00;61272.81;5216121;28;20049;-76
2023/03/30 01:51:10;;;;;;;10.60;1.70;;;;;;;-150.27;100.00;61272.81;5216450;28;20106;-75
2023/03/30 01:53:50;;;;;;;3.30;1.40;;;;;;;-150.27;100.00;61272.81;5220515;28;20021;-75
2023/03/30 01:56:31;;;;;;;7.30;1.87;;;;;;;-150.27;100.00;61272.81;5236776;28;20081;-76
2023/03/30 01:59:12;;;;;;;6.57;2.03;;;;;;;-150.27;100.00;61272.81;5237176;28;20074;-77
2023/03/30 02:01:48;;;;;;;4.73;2.10;;;;;;;-150.27;100.00;61272.81;5236663;28;20041;-76
2023/03/30 02:04:22;;;;;;;7.17;2.07;;;;;;;-150.27;100.00;61272.81;5236815;28;20024;-76
2023/03/30 02:07:19;;;;;;;4.05;1.90;;;;;;;-150.27;100.00;61272.81;5237023;28;20036;-76
2023/03/30 02:09:54;;;;;;;7.23;2.00;;;;;;;-150.27;100.00;61272.81;5236136;28;20577;-75
2023/03/30 02:12:28;;;;;;;6.37;1.97;;;;;;;-150.27;100.00;61272.81;5237109;28;20037;-76
2023/03/30 02:15:04;;;;;;;6.90;2.05;;;;;;;-150.27;100.00;61272.81;5236249;28;20535;-76
2023/03/30 02:17:36;;;;;;;4.87;1.90;;;;;;;-150.27;100.00;61272.81;5234647;28;20021;-77
2023/03/30 02:20:10;;;;;;;8.27;1.70;;;;;;;-150.27;100.00;61272.81;5236542;28;20068;-76
2023/03/30 02:22:41;;;;;;;4.27;2.00;;;;;;;-150.27;100.00;61272.81;5235350;28;20040;-76
2023/03/30 02:25:12;;;;;;;6.23;1.90;;;;;;;-150.27;100.00;61272.81;5236163;28;20033;-76
2023/03/30 02:27:44;;;;;;;6.63;2.03;;;;;;;-150.27;100.00;61272.81;5236187;28;20116;-76
2023/03/30 02:30:15;;;;;;;6.57;1.80;;;;;;;-150.27;100.00;61272.81;5236202;28;20033;-76
2023/03/30 02:32:53;;;;;;;5.47;1.80;;;;;;;-150.27;100.00;61272.81;5235688;28;20325;-76
2023/03/30 02:35:53;;;;;;;7.20;2.53;;;;;;;-150.27;100.00;61272.81;5236266;28;20112;-76
2023/03/30 02:38:36;;;;;;;6.67;2.00;;;;;;;-150.27;100.00;61272.81;5235371;28;20075;-76
2023/03/30 02:41:31;;;;;;;4.53;1.90;;;;;;;-150.27;100.00;61272.81;5236152;28;20036;-76
2023/03/30 02:44:11;;;;;;;;;;;;;;;-150.27;100.00;61272.81;5236344;28;20028;-76
2023/03/30 02:47:12;;;;;;;6.73;2.07;;;;;;;-150.27;100.00;61272.81;5235329;28;19944;-77
2023/03/30 02:49:52;;;;;;;8.00;2.23;;;;;;;-150.27;100.00;61272.81;5235878;28;20116;-76
2023/03/30 02:52:43;;;;;;;3.97;1.80;;;;;;;-150.27;100.00;61272.81;5235707;28;20029;-75
2023/03/30 02:55:47;;;;;;;3.90;1.73;;;;;;;-150.27;100.00;61272.81;5217586;28;20045;-76
2023/03/30 02:58:27;;;;;;;4.93;1.67;;;;;;;-150.27;100.00;61272.81;5212997;28;20052;-76
2023/03/30 03:01:12;;;;;;;7.17;1.77;;;;;;;-150.27;100.00;61272.81;5214179;28;20037;-77
2023/03/30 03:03:48;;;;;;;9.47;2.50;;;;;;;-150.27;100.00;61272.81;5215126;28;20025;-76
2023/03/30 03:06:20;;;;;;;5.87;1.57;;;;;;;-150.27;100.00;61272.81;5215001;28;20413;-75
2023/03/30 03:08:54;;;;;;;6.30;2.00;;;;;;;-150.27;100.00;61272.81;5226014;28;20029;-76
2023/03/30 03:11:27;;;;;;;5.18;1.75;;;;;;;-150.27;100.00;61272.81;5235097;28;20434;-76
2023/03/30 03:13:58;;;;;;;4.63;1.90;;;;;;;-150.27;100.00;61272.81;5234427;28;20025;-76
2023/03/30 03:16:30;;;;;;;6.53;2.10;;;;;;;-150.27;100.00;61272.81;5234102;28;20429;-76
2023/03/30 03:19:02;;;;;;;6.80;2.33;;;;;;;-150.27;100.00;61272.81;5235062;28;20056;-76
2023/03/30 03:21:33;;;;;;;6.13;2.10;;;;;;;-150.27;100.00;61272.81;5234791;28;20829;-76
2023/03/30 03:24:05;;;;;;;8.00;1.97;;;;;;;-150.27;100.00;61272.81;5234676;28;20033;-77
2023/03/30 03:26:36;;;;;;;8.23;1.80;;;;;;;-150.27;100.00;61272.81;5234804;28;20542;-76
2023/03/30 03:29:08;;;;;;;4.80;2.43;;;;;;;-150.27;100.00;61272.81;5235079;28;20545;-76
2023/03/30 03:31:40;;;;;;;4.33;2.00;;;;;;;-150.27;100.00;61272.81;5234151;28;20037;-77
2023/03/30 03:34:11;;;;;;;8.33;2.20;;;;;;;-150.27;100.00;61272.81;5234153;28;20025;-76
2023/03/30 03:36:42;;;;;;;9.30;2.47;;;;;;;-150.27;100.00;61272.81;5233361;28;20124;-76
2023/03/30 03:39:14;;;;;;;6.97;2.00;;;;;;;-150.27;100.00;61272.81;5234801;28;20029;-77
2023/03/30 03:41:46;;;;;;;7.50;1.73;;;;;;;-150.27;100.00;61272.81;5235259;28;21102;-77
2023/03/30 03:44:17;;;;;;;6.40;2.17;;;;;;;-150.27;100.00;61272.81;5234381;28;20030;-75
2023/03/30 03:46:48;;;;;;;5.07;1.67;;;;;;;-150.27;100.00;61272.81;5233432;28;20033;-75
2023/03/30 03:49:20;;;;;;;4.17;1.47;;;;;;;-150.27;100.00;61272.81;5234584;28;20029;-75
2023/03/30 03:51:52;;;;;;;6.00;1.80;;;;;;;-150.27;100.00;61272.81;5234359;28;20037;-77
2023/03/30 03:54:23;;;;;;;7.20;1.80;;;;;;;-150.27;100.00;61272.81;5234890;28;20049;-77
2023/03/30 03:56:55;;;;;;;5.70;1.77;;;;;;;-150.27;100.00;61272.81;5234479;28;20038;-77
2023/03/30 03:59:27;;;;;;;7.60;2.23;;;;;;;-150.27;100.00;61272.81;5233956;28;20381;-77
2023/03/30 04:01:58;;;;;;;4.67;2.13;;;;;;;-150.27;100.00;61272.81;5233242;28;20037;-77
2023/03/30 04:04:30;;;;;;;7.10;2.57;;;;;;;-150.27;100.00;61272.81;5234630;28;20031;-77
2023/03/30 04:07:01;;;;;;;5.23;2.23;;;;;;;-150.27;100.00;61272.81;5213567;28;20041;-76
2023/03/30 04:09:32;;;;;;;7.37;1.77;;;;;;;-150.27;100.00;61272.81;5212367;28;20398;-75
2023/03/30 04:12:04;;;;;;;6.23;1.70;;;;;;;-150.27;100.00;61272.81;5230363;28;20040;-76
2023/03/30 04:14:35;;;;;;;4.43;1.27;;;;;;;-150.27;100.00;61272.81;5234678;28;20047;-76
2023/03/30 04:17:07;;;;;;;8.63;2.20;;;;;;;-150.27;100.00;61272.81;5233290;28;20029;-76
2023/03/30 04:19:40;;;;;;;6.50;1.97;;;;;;;-150.27;100.00;61272.81;5234693;28;20076;-77
2023/03/30 04:22:12;;;;;;;5.25;1.98;;;;;;;-150.27;100.00;61272.81;5232667;28;20021;-77
2023/03/30 04:24:44;;;;;;;5.40;1.60;;;;;;;-150.27;100.00;61272.81;5235213;28;20029;-77
2023/03/30 04:27:16;;;;;;;6.47;1.87;;;;;;;-150.27;100.00;61272.81;5234830;28;20061;-77
2023/03/30 04:29:47;;;;;;;6.13;2.00;;;;;;;-150.27;100.00;61272.81;5236343;28;20555;-76
2023/03/30 04:32:19;;;;;;;6.30;2.07;;;;;;;-150.27;100.00;61272.81;5236031;28;20029;-76
2023/03/30 04:34:53;;;;;;;6.07;1.70;;;;;;;-150.27;100.00;61272.81;5239815;28;20021;-76
2023/03/30 04:37:29;;;;;;;7.70;2.28;;;;;;;-150.27;100.00;61272.81;5242760;28;20151;-76
2023/03/30 04:40:05;;;;;;;7.03;1.83;;;;;;;-150.27;100.00;61272.81;5249156;28;20029;-77
2023/03/30 04:42:37;;;;;;;5.50;1.60;;;;;;;-150.27;100.00;61272.81;5251066;28;20033;-76
2023/03/30 04:45:09;;;;;;;9.17;1.80;;;;;;;-150.27;100.00;61272.81;5238408;28;20535;-77
2023/03/30 04:47:40;;;;;;;7.93;1.80;;;;;;;-150.27;100.00;61272.81;5240213;28;20031;-77
2023/03/30 04:50:12;;;;;;;5.90;2.00;;;;;;;-150.27;100.00;61272.81;5238549;28;20177;-77
2023/03/30 04:52:44;;;;;;;6.60;1.90;;;;;;;-150.27;100.00;61272.81;5234765;28;20088;-77
2023/03/30 04:55:15;;;;;;;3.73;1.40;;;;;;;-150.27;100.00;61272.81;5233906;28;20463;-77
2023/03/30 04:57:46;;;;;;;5.33;2.13;;;;;;;-150.27;100.00;61272.81;5234159;28;20083;-77
2023/03/30 05:00:18;;;;;;;8.13;1.37;;;;;;;-150.27;100.00;61272.81;5231911;28;20033;-77
2023/03/30 05:02:50;;;;;;;3.77;1.50;;;;;;;-150.27;100.00;61272.81;5224242;28;20123;-77
2023/03/30 05:05:21;;;;;;;4.53;1.67;;;;;;;-150.27;100.00;61272.81;5213032;28;20721;-77
2023/03/30 05:07:54;;;;;;;7.53;1.80;;;;;;;-150.27;100.00;61272.81;5226854;28;20080;-77
2023/03/30 05:10:25;;;;;;;6.30;1.63;;;;;;;-150.27;100.00;61272.81;5233545;28;20025;-77
2023/03/30 05:12:57;;;;;;;6.53;2.10;;;;;;;-150.27;100.00;61272.81;5232949;28;20033;-76
2023/03/30 05:15:28;;;;;;;8.20;1.80;;;;;;;-150.27;100.00;61272.81;5232275;28;20163;-75
2023/03/30 05:17:59;;;;;;;9.70;2.30;;;;;;;-150.27;100.00;61272.81;5232033;28;20473;-76
2023/03/30 05:20:31;;;;;;;7.33;2.70;;;;;;;-150.27;100.00;61272.81;5214787;28;20040;-76
2023/03/30 05:23:02;;;;;;;9.87;2.33;;;;;;;-150.27;100.00;61272.81;5217878;28;20148;-76
2023/03/30 05:25:33;;;;;;;7.70;2.80;;;;;;;-150.27;100.00;61272.81;5231191;28;20116;-76
2023/03/30 05:28:05;;;;;;;9.33;2.47;;;;;;;-150.27;100.00;61272.81;5231685;28;20037;-76
2023/03/30 05:30:36;;;;;;;6.00;3.93;;;;;;;-150.27;100.00;61272.81;5231885;28;20124;-76
2023/03/30 05:33:08;;;;;;;8.13;2.53;;;;;;;-150.27;100.00;61272.81;5232311;28;20029;-76
2023/03/30 05:35:40;;;;;;;5.60;2.83;;;;;;;-150.27;100.00;61272.81;5233184;28;20457;-76
2023/03/30 05:38:11;;;;;;;7.73;2.60;;;;;;;-150.27;100.00;61272.81;5215808;28;20120;-77
2023/03/30 05:40:44;;;;;;;7.57;2.33;;;;;;;-150.27;100.00;61272.81;5217329;28;20037;-76
2023/03/30 05:43:17;;;;;;;8.90;2.60;;;;;;;-150.27;100.00;61272.81;5232725;28;20029;-77
2023/03/30 05:45:48;;;;;;;10.93;2.70;;;;;;;-150.27;100.00;61272.81;5231593;28;20056;-76
2023/03/30 05:48:20;;;;;;;10.03;2.70;;;;;;;-150.27;100.00;61272.81;5232425;28;20036;-77
2023/03/30 05:50:51;;;;;;;7.30;3.10;;;;;;;-150.27;100.00;61272.81;5232154;28;20037;-77
2023/03/30 05:53:22;;;;;;;9.70;2.70;;;;;;;-150.27;100.00;61272.81;5232472;28;20886;-77
2023/03/30 05:55:54;;;;;;;6.37;2.53;;;;;;;-150.27;100.00;61272.81;5231184;28;20358;-76
2023/03/30 05:58:26;;;;;;;5.33;2.50;;;;;;;-150.27;100.00;61272.81;5231954;28;20401;-76
2023/03/30 06:00:58;;;;;;;11.03;2.70;;;;;;;-150.27;100.00;61272.81;5231020;28;20040;-76
2023/03/30 06:03:29;;;;;;;9.57;3.37;;;;;;;-150.27;100.00;61272.81;5216753;28;20033;-76
2023/03/30 06:06:00;;;;;;;10.80;3.17;;;;;;;-150.27;100.00;61272.81;5227776;28;20079;-75
2023/03/30 06:08:32;;;;;;;7.43;3.47;;;;;;;-150.27;100.00;61272.81;5227048;28;20044;-75
2023/03/30 06:11:05;;;;;;;9.53;3.40;;;;;;;-150.27;100.00;61272.81;5231627;28;20115;-75
2023/03/30 06:13:37;;;;;;;12.70;3.53;;;;;;;-150.27;100.00;61272.81;5224159;28;20091;-77
2023/03/30 06:16:08;;;;;;;8.83;2.73;;;;;;;-150.27;100.00;61272.81;5230132;28;20054;-76
2023/03/30 06:18:39;;;;;;;8.40;2.77;;;;;;;-150.27;100.00;61272.81;5231766;28;20057;-76
2023/03/30 06:21:11;;;;;;;10.37;3.17;;;;;;;-150.27;100.00;61272.81;5232206;28;20075;-76
2023/03/30 06:24:13;;;;;;;12.83;3.63;;;;;;;-150.27;100.00;61272.81;5231286;28;20026;-76
2023/03/30 06:26:45;;;;;;;8.90;2.90;;;;;;;-150.27;100.00;61272.81;5232095;28;20028;-76
2023/03/30 06:29:16;;;;;;;7.33;2.97;;;;;;;-150.27;100.00;61272.81;5231391;28;20037;-75
2023/03/30 06:31:50;;;;;;;11.37;3.60;;;;;;;-150.27;100.00;61272.81;5218924;28;20551;-75
2023/03/30 06:34:21;;;;;;;11.77;3.57;;;;;;;-150.27;100.00;61272.81;5235347;28;20120;-75
2023/03/30 06:36:52;;;;;;;10.77;3.00;;;;;;;-150.27;100.00;61272.81;5235889;28;20102;-75
2023/03/30 06:39:24;;;;;;;14.83;3.37;;;;;;;-150.27;100.00;61272.81;5235466;28;20033;-76
2023/03/30 06:41:55;;;;;;;8.70;2.90;;;;;;;-150.27;100.00;61272.81;5235858;28;20030;-75
2023/03/30 06:44:27;;;;;;;10.50;2.63;;;;;;;-150.27;100.00;61272.81;5235370;28;20180;-75
2023/03/30 06:46:58;;;;;;;8.70;3.37;;;;;;;-150.27;100.00;61272.81;5234318;28;20808;-75
2023/03/30 06:49:30;;;;;;;7.43;2.63;;;;;;;-150.27;100.00;61272.81;5235875;28;20029;-75
2023/03/30 06:52:01;;;;;;;8.17;2.50;;;;;;;-150.27;100.00;61272.81;5235654;28;20060;-75
2023/03/30 06:54:32;;;;;;;8.13;2.47;;;;;;;-150.27;100.00;61272.81;5234713;28;20083;-76
2023/03/30 06:57:04;;;;;;;9.07;2.57;;;;;;;-150.27;100.00;61272.81;5235478;28;20033;-76
2023/03/30 06:59:35;;;;;;;12.73;2.60;;;;;;;-150.27;100.00;61272.81;5234666;28;20556;-76
2023/03/30 07:02:13;;;;;;;7.07;2.60;;;;;;;-150.27;100.00;61272.81;5234156;28;20438;-76
2023/03/30 07:04:45;;;;;;;7.17;2.30;;;;;;;-150.27;100.00;61272.81;5233714;28;20030;-77
2023/03/30 07:07:16;;;;;;;7.83;2.67;;;;;;;-150.27;100.00;61272.81;5233820;28;20029;-77
2023/03/30 07:09:48;;;;;;;7.13;3.00;;;;;;;-150.27;100.00;61272.81;5235237;28;20036;-77
2023/03/30 07:12:19;;;;;;;6.57;2.57;;;;;;;-150.27;100.00;61272.81;5224636;28;20042;-78
2023/03/30 07:14:51;;;;;;;10.87;2.73;;;;;;;-150.27;100.00;61272.81;5223312;28;20088;-78
2023/03/30 07:17:22;;;;;;;9.00;2.83;;;;;;;-150.27;100.00;61272.81;5235381;28;20026;-77
2023/03/30 07:19:54;;;;;;;9.17;2.43;;;;;;;-150.27;100.00;61272.81;5233250;28;20056;-77
2023/03/30 07:22:26;;;;;;;9.70;2.30;;;;;;;-150.27;100.00;61272.81;5234612;28;20042;-77
2023/03/30 07:24:57;;;;;;;10.77;2.73;;;;;;;-150.27;100.00;61272.81;5232258;28;20485;-75
2023/03/30 07:27:28;;;;;;;7.90;2.67;;;;;;;-150.27;100.00;61272.81;5234971;28;20489;-74
2023/03/30 07:30:00;;;;;;;9.67;3.43;;;;;;;-150.27;100.00;61272.81;5233742;28;20064;-75
2023/03/30 07:32:31;;;;;;;8.23;3.10;;;;;;;-150.27;100.00;61272.81;5228887;28;20521;-75
2023/03/30 07:35:03;;;;;;;7.77;2.77;;;;;;;-150.27;100.00;61272.81;5234214;28;20132;-76
2023/03/30 07:37:36;;;;;;;11.33;2.77;;;;;;;-150.27;100.00;61272.81;5234125;28;20374;-76
2023/03/30 07:40:09;;;;;;;11.57;3.67;;;;;;;-150.27;100.00;61272.81;5234245;28;20072;-76
2023/03/30 07:42:40;;;;;;;11.90;2.67;;;;;;;-150.27;100.00;61272.81;5232970;28;20033;-76
2023/03/30 07:45:13;;;;;;;11.27;2.90;;;;;;;-150.27;100.00;61272.81;5224208;28;20029;-76
2023/03/30 07:47:44;;;;;;;13.00;3.20;;;;;;;-150.27;100.00;61272.81;5234498;28;20124;-76
2023/03/30 07:50:16;;;;;;;11.53;3.97;;;;;;;-150.27;100.00;61272.81;5232627;28;20132;-76
2023/03/30 07:52:49;;;;;;;12.53;3.20;;;;;;;-150.27;100.00;61272.81;5232437;28;20025;-76
2023/03/30 07:55:21;;;;;;;13.63;2.63;;;;;;;-150.27;100.00;61272.81;5225597;28;20060;-75
2023/03/30 07:57:52;;;;;;;11.43;3.27;;;;;;;-150.27;100.00;61272.81;5226396;28;20708;-75
2023/03/30 08:00:23;;;;;;;11.43;2.87;;;;;;;-150.27;100.00;61272.81;5225661;28;20044;-76
2023/03/30 08:02:55;;;;;;;11.67;3.40;;;;;;;-150.27;100.00;61272.81;5224828;28;20033;-76
2023/03/30 08:05:26;;;;;;;14.73;3.53;;;;;;;-150.27;100.00;61272.81;5226697;28;20065;-74
2023/03/30 08:07:58;;;;;;;12.27;3.40;;;;;;;-150.27;100.00;61272.81;5225440;28;20680;-73
2023/03/30 08:10:29;;;;;;;13.67;3.17;;;;;;;-150.27;100.00;61272.81;5226271;28;20109;-74
2023/03/30 08:13:01;;;;;;;15.47;4.03;;;;;;;-150.27;100.00;61272.81;5224996;28;20037;-73
2023/03/30 08:15:32;;;;;;;13.37;3.57;;;;;;;-150.27;100.00;61272.81;5224152;28;20060;-75
2023/03/30 08:18:06;;;;;;;20.90;4.23;;;;;;;-150.27;100.00;61272.81;5223937;28;20114;-75
2023/03/30 08:20:39;;;;;;;15.45;3.55;;;;;;;-150.27;100.00;61272.81;5223728;28;20302;-74
2023/03/30 08:23:11;;;;;;;15.37;3.60;;;;;;;-150.27;100.00;61272.81;5224580;28;20036;-75
2023/03/30 08:25:42;;;;;;;12.07;3.40;;;;;;;-150.27;100.00;61272.81;5228698;28;20021;-75
2023/03/30 08:28:13;;;;;;;18.63;3.90;;;;;;;-150.27;100.00;61272.81;5224096;28;20091;-75
2023/03/30 08:30:45;;;;;;;15.00;3.50;;;;;;;-150.27;100.00;61272.81;5223140;28;20033;-76
2023/03/30 08:33:16;;;;;;;9.40;2.73;;;;;;;-150.27;100.00;61272.81;5222769;28;20033;-76
2023/03/30 08:35:48;;;;;;;14.80;3.30;;;;;;;-150.27;100.00;61272.81;5224503;28;20060;-76
2023/03/30 08:38:20;;;;;;;12.27;2.80;;;;;;;-150.27;100.00;61272.81;5224113;28;20132;-75
2023/03/30 08:40:51;;;;;;;12.73;3.23;;;;;;;-150.27;100.00;61272.81;5223754;28;20091;-76
2023/03/30 08:43:41;;;;;;;12.33;3.20;;;;;;;-150.27;100.00;61272.81;5223538;28;20120;-75
2023/03/30 08:46:17;;;;;;;15.43;3.50;;;;;;;-150.27;100.00;61272.81;5225537;28;20039;-76
2023/03/30 08:48:50;;;;;;;12.87;4.03;;;;;;;-150.27;100.00;61272.81;5224968;28;20041;-75
2023/03/30 08:51:31;;;;;;;15.53;3.40;;;;;;;-150.27;100.00;61272.81;5223961;28;20033;-76
2023/03/30 08:54:05;;;;;;;15.10;4.00;;;;;;;-150.27;100.00;61272.81;5227047;28;20053;-76
2023/03/30 08:56:41;;;;;;;9.68;3.20;;;;;;;-150.27;100.00;61272.81;5225234;28;20056;-74
2023/03/30 08:59:24;;;;;;;9.93;2.93;;;;;;;-150.27;100.00;61272.81;5224336;28;20044;-76
2023/03/30 09:01:55;;;;;;;10.60;2.90;;;;;;;-150.27;100.00;61272.81;5225209;28;20029;-76
2023/03/30 09:04:45;;;;;;;11.55;3.78;;;;;;;-150.27;100.00;61272.81;5225979;28;20370;-74
2023/03/30 09:07:20;;;;;;;10.50;2.75;;;;;;;-150.27;100.00;61272.81;5225854;28;20025;-75
2023/03/30 09:09:53;;;;;;;12.83;3.57;;;;;;;-150.27;100.00;61272.81;5218682;28;20026;-75
2023/03/30 09:12:48;;;;;;;15.87;3.30;;;;;;;-150.27;100.00;61272.81;5205405;28;20049;-75
2023/03/30 09:15:28;;;;;;;10.57;2.72;;;;;;;-150.27;100.00;61272.81;5222208;28;20299;-75
2023/03/30 09:18:14;;;;;;;14.10;3.03;;;;;;;-150.27;100.00;61272.81;5219010;28;20136;-75
2023/03/30 09:20:49;;;;;;;14.23;3.30;;;;;;;-150.27;100.00;61272.81;5223333;28;20359;-74
2023/03/30 09:23:21;;;;;;;13.67;3.80;;;;;;;-150.27;100.00;61272.81;5219051;28;20516;-75
2023/03/30 09:25:52;;;;;;;12.03;3.77;;;;;;;-150.27;100.00;61272.81;5222563;28;20033;-75
2023/03/30 09:28:55;;;;;;;17.30;4.43;;;;;;;-150.27;100.00;61272.81;5224814;28;20495;-74
2023/03/30 09:31:35;;;;;;;13.97;3.00;;;;;;;-150.27;100.00;61272.81;5222332;28;20040;-74
2023/03/30 09:34:26;;;;;;;14.77;4.57;;;;;;;-150.27;100.00;61272.81;5221911;28;20033;-75
2023/03/30 09:37:17;;;;;;;16.87;4.73;;;;;;;-150.27;100.00;61272.81;5221681;28;20035;-75
2023/03/30 09:39:49;;;;;;;13.27;4.40;;;;;;;-150.27;100.00;61272.81;5220632;28;20116;-74
2023/03/30 09:42:34;;;;;;;16.33;4.20;;;;;;;-150.27;100.00;61272.81;5220644;28;20021;-75
2023/03/30 09:45:35;;;;;;;14.70;3.93;;;;;;;-150.27;100.00;61272.81;5221912;28;20036;-76
2023/03/30 09:48:08;;;;;;;15.43;4.10;;;;;;;-150.27;100.00;61272.81;5214211;28;20771;-74
2023/03/30 09:50:43;;;;;;;11.60;3.70;;;;;;;-150.27;100.00;61272.81;5221167;28;20037;-76
2023/03/30 09:53:23;;;;;;;19.87;4.03;;;;;;;-150.27;100.00;61272.81;5219772;28;20068;-75
2023/03/30 09:56:11;;;;;;;12.13;3.70;;;;;;;-150.27;100.00;61272.81;5221836;28;21311;-75
2023/03/30 09:58:42;;;;;;;17.50;4.87;;;;;;;-150.27;100.00;61272.81;5222980;28;20481;-75
2023/03/30 10:01:18;;;;;;;13.50;3.80;;;;;;;-150.27;100.00;61272.81;5223516;28;20037;-76
2023/03/30 10:04:08;;;;;;;17.57;4.80;;;;;;;-150.27;100.00;61272.81;5223466;28;20048;-75
2023/03/30 10:06:48;;;;;;;15.97;3.93;;;;;;;-150.27;100.00;61272.81;5223365;28;20037;-74
2023/03/30 10:09:22;;;;;;;15.03;4.30;;;;;;;-150.27;100.00;61272.81;5227023;28;20037;-74
2023/03/30 10:11:54;;;;;;;15.13;3.83;;;;;;;-150.27;100.00;61272.81;5227892;28;20064;-75
2023/03/30 10:14:32;;;;;;;16.00;5.27;;;;;;;-150.27;100.00;61272.81;5225562;28;20044;-74
2023/03/30 10:17:05;;;;;;;20.13;4.37;;;;;;;-150.27;100.00;61272.81;5225542;28;20038;-75
2023/03/30 10:19:40;;;;;;;16.93;3.73;;;;;;;-150.27;100.00;61272.81;5227314;28;20033;-74
2023/03/30 10:22:16;;;;;;;17.07;4.43;;;;;;;-150.27;100.00;61272.81;5227027;28;20115;-74
2023/03/30 10:24:55;;;;;;;18.80;4.30;;;;;;;-150.27;100.00;61272.81;5226062;28;20072;-74
2023/03/30 10:27:33;;;;;;;13.97;4.17;;;;;;;-150.27;100.00;61272.81;5227437;28;20061;-75
2023/03/30 10:30:16;;;;;;;12.33;4.83;;;;;;;-150.27;100.00;61272.81;5226735;28;20129;-74
2023/03/30 10:32:48;;;;;;;15.67;5.33;;;;;;;-150.27;100.00;61272.81;5226379;28;20079;-75
2023/03/30 10:35:24;;;;;;;18.10;4.73;;;;;;;-150.27;100.00;61272.81;5227256;28;20504;-75
2023/03/30 10:37:57;;;;;;;12.87;3.73;;;;;;;-150.27;100.00;61272.81;5227061;28;20021;-74
2023/03/30 10:40:38;;;;;;;16.97;4.73;;;;;;;-150.27;100.00;61272.81;5226910;28;20033;-74
2023/03/30 10:43:16;;;;;;;12.60;3.77;;;;;;;-150.27;100.00;61272.81;5225507;28;20096;-74
2023/03/30 10:45:51;;;;;;;18.23;4.30;;;;;;;-150.27;100.00;61272.81;5226138;28;20052;-76
2023/03/30 10:48:31;;;;;;;14.73;4.57;;;;;;;-150.27;100.00;61272.81;5226646;28;20022;-76
2023/03/30 10:51:08;;;;;;;15.87;4.37;;;;;;;-150.27;100.00;61272.81;5220231;28;20032;-76
2023/03/30 10:53:52;;;;;;;15.77;3.83;;;;;;;-150.27;100.00;61272.81;5224100;28;20435;-74
2023/03/30 10:56:43;;;;;;;14.80;4.43;;;;;;;-150.27;100.00;61272.81;5221862;28;20663;-75
2023/03/30 10:59:26;;;;;;;11.13;2.93;;;;;;;-150.27;100.00;61272.81;5224160;28;20033;-76
2023/03/30 11:02:39;;;;;;;13.30;4.00;;;;;;;-150.27;100.00;61272.81;5226413;28;20025;-76
2023/03/30 11:05:16;;;;;;;17.50;4.67;;;;;;;-150.27;100.00;61272.81;5225350;28;20500;-76
2023/03/30 11:08:01;;;;;;;13.80;3.47;;;;;;;-150.27;100.00;61272.81;5225787;28;20021;-75
2023/03/30 11:10:57;;;;;;;17.97;4.10;;;;;;;-150.27;100.00;61272.81;5226015;28;20688;-75
2023/03/30 11:13:35;;;;;;;13.70;4.27;;;;;;;-150.27;100.00;61272.81;5219163;28;20065;-75
2023/03/30 11:16:22;;;;;;;17.17;3.97;;;;;;;-150.27;100.00;61272.81;5222177;28;20681;-76
2023/03/30 11:18:55;;;;;;;16.03;3.80;;;;;;;-150.27;100.00;61272.81;5220726;28;20033;-76
2023/03/30 11:21:35;;;;;;;17.08;4.15;;;;;;;-150.27;100.00;61272.81;5223434;28;20033;-74
2023/03/30 11:24:18;;;;;;;12.00;3.93;;;;;;;-150.27;100.00;61272.81;5222436;28;20129;-74
2023/03/30 11:26:57;;;;;;;14.47;4.03;;;;;;;-150.27;100.00;61272.81;5222756;28;20113;-75
2023/03/30 11:29:36;;;;;;;19.13;4.23;;;;;;;-150.27;100.00;61272.81;5222543;28;20428;-75
2023/03/30 11:32:43;;;;;;;15.57;4.90;;;;;;;-150.27;100.00;61272.81;5221871;28;20033;-75
2023/03/30 11:35:23;;;;;;;13.87;4.17;;;;;;;-150.27;100.00;61272.81;5176629;28;20096;-74
2023/03/30 11:38:25;;;;;;;19.40;4.03;;;;;;;-150.27;100.00;61272.81;5216314;28;20065;-75
2023/03/30 11:41:18;;;;;;;11.17;3.07;;;;;;;-150.27;100.00;61272.81;5222154;28;20124;-75
2023/03/30 11:43:54;;;;;;;16.77;4.37;;;;;;;-150.27;100.00;61272.81;5222664;28;20112;-75
2023/03/30 11:46:38;;;;;;;16.33;3.63;;;;;;;-150.27;100.00;61272.81;5221370;28;20120;-76
2023/03/30 11:49:23;;;;;;;12.73;4.03;;;;;;;-150.27;100.00;61272.81;5222721;28;20554;-73